Terminal Aerodrome Forecast
Issued by NWS Glasgow, MT

Home | Current Version | Previous Version | Text Only | Print | Product List | Glossary On
Versions: 1 2 3 4 5 6 7 8 9 10 11 12 13 14 15
299
FTUS45 KGGW 061300 AAA
TAFGGW
TAF AMD
KGGW 061300Z 0613/0712 35017KT P6SM VCSH BKN100
      TEMPO 0613/0616 4SM HZ
     FM061600 36015KT P6SM BKN110
     FM062000 01012KT P6SM SCT110
     FM070000 02010KT P6SM FEW200
     FM070600 06006KT P6SM FEW250=

USA.gov is the U.S. government's official web portal to all federal, state and local government web resources and services.